KUVA/UVA METAR and TAF weather

Enter ICAO airport designator
Station Type Date Time Source
KUVA METAR 2021/04/17 03:35 UTC NOAA

KUVA 170335Z AUTO 04013KT 10SM CLR 18/15 A2989 RMK AO2 T01810145


Station Type Date Time Source
KUVA Decoded METAR 2021/04/17 03:35 UTC NOAA

Uvalde, Garner Field Airport, TX, United States (KUVA) 29-12-40N 099-44-36W
Apr 16, 2021 - 11:35 PM EDT / 2021.04.17 0335 UTC
Wind: from the NE (040 degrees) at 15 MPH (13 KT):0
Visibility: 10 mile(s):0
Sky conditions: clear
Temperature: 64.6 F (18.1 C)
Dew Point: 58.1 F (14.5 C)
Relative Humidity: 79%
Pressure (altimeter): 29.89 in. Hg (1012 hPa)
ob: KUVA 170335Z AUTO 04013KT 10SM CLR 18/15 A2989 RMK AO2 T01810145
cycle: 3

Station Type Date Time Source
KUVA TAF UTC NOAA

Error!

Example: see airport list